sensor_id;sensor_type;location;lat;lon;timestamp;pressure;altitude;pressure_sealevel;temperature;humidity
55550;BME280;41397;49.972;18.944;2023-04-25T00:01:22;100795.88;;;16.32;69.57
55550;BME280;41397;49.972;18.944;2023-04-25T00:04:27;100788.80;;;16.30;69.79
55550;BME280;41397;49.972;18.944;2023-04-25T00:07:30;100795.50;;;16.27;69.94
55550;BME280;41397;49.972;18.944;2023-04-25T00:10:32;100793.79;;;16.26;69.66
55550;BME280;41397;49.972;18.944;2023-04-25T00:13:34;100790.14;;;16.26;69.99
55550;BME280;41397;49.972;18.944;2023-04-25T00:16:35;100794.97;;;16.24;70.10
55550;BME280;41397;49.972;18.944;2023-04-25T00:19:36;100790.46;;;16.23;70.00
55550;BME280;41397;49.972;18.944;2023-04-25T00:22:38;100793.08;;;16.24;69.97
55550;BME280;41397;49.972;18.944;2023-04-25T00:25:40;100795.13;;;16.22;69.82
55550;BME280;41397;49.972;18.944;2023-04-25T00:28:42;100795.13;;;16.22;69.76
55550;BME280;41397;49.972;18.944;2023-04-25T00:31:43;100792.84;;;16.17;69.69
55550;BME280;41397;49.972;18.944;2023-04-25T00:34:44;100798.92;;;16.21;69.84
55550;BME280;41397;49.972;18.944;2023-04-25T00:37:45;100800.96;;;16.19;69.82
55550;BME280;41397;49.972;18.944;2023-04-25T00:40:49;100804.59;;;16.19;69.93
55550;BME280;41397;49.972;18.944;2023-04-25T00:43:52;100809.96;;;16.21;69.71
55550;BME280;41397;49.972;18.944;2023-04-25T00:46:55;100804.77;;;16.18;69.79
55550;BME280;41397;49.972;18.944;2023-04-25T00:49:56;100805.63;;;16.18;69.81
55550;BME280;41397;49.972;18.944;2023-04-25T00:52:57;100808.53;;;16.17;69.70
55550;BME280;41397;49.972;18.944;2023-04-25T00:55:59;100804.92;;;16.16;69.84
55550;BME280;41397;49.972;18.944;2023-04-25T00:59:00;100809.57;;;16.16;69.58
55550;BME280;41397;49.972;18.944;2023-04-25T01:02:04;100814.23;;;16.15;69.57
55550;BME280;41397;49.972;18.944;2023-04-25T01:05:06;100804.85;;;16.08;69.22
55550;BME280;41397;49.972;18.944;2023-04-25T01:08:07;100808.80;;;16.06;68.81
55550;BME280;41397;49.972;18.944;2023-04-25T01:11:09;100807.23;;;16.03;68.50
55550;BME280;41397;49.972;18.944;2023-04-25T01:14:11;100818.66;;;15.90;67.97
55550;BME280;41397;49.972;18.944;2023-04-25T01:17:13;100819.16;;;15.86;67.98
55550;BME280;41397;49.972;18.944;2023-04-25T01:20:16;100822.07;;;15.84;67.57
55550;BME280;41397;49.972;18.944;2023-04-25T01:23:21;100822.07;;;15.84;67.74
55550;BME280;41397;49.972;18.944;2023-04-25T01:26:23;100828.77;;;15.82;67.44
55550;BME280;41397;49.972;18.944;2023-04-25T01:29:26;100827.19;;;15.79;67.87
55550;BME280;41397;49.972;18.944;2023-04-25T01:32:28;100828.37;;;15.76;67.32
55550;BME280;41397;49.972;18.944;2023-04-25T01:35:30;100828.00;;;15.71;67.51
55550;BME280;41397;49.972;18.944;2023-04-25T01:38:32;100836.56;;;15.68;67.97
55550;BME280;41397;49.972;18.944;2023-04-25T01:41:34;100833.81;;;15.68;68.40
55550;BME280;41397;49.972;18.944;2023-04-25T01:44:35;100835.39;;;15.71;67.96
55550;BME280;41397;49.972;18.944;2023-04-25T01:47:38;100839.04;;;15.71;68.27
55550;BME280;41397;49.972;18.944;2023-04-25T01:50:41;100842.80;;;15.70;68.05
55550;BME280;41397;49.972;18.944;2023-04-25T01:53:43;100834.95;;;15.66;67.82
55550;BME280;41397;49.972;18.944;2023-04-25T01:56:52;100840.47;;;15.66;67.48
55550;BME280;41397;49.972;18.944;2023-04-25T02:00:03;100845.98;;;15.66;67.74
55550;BME280;41397;49.972;18.944;2023-04-25T02:03:05;100837.88;;;15.64;67.49
55550;BME280;41397;49.972;18.944;2023-04-25T02:06:06;100841.96;;;15.60;67.34
55550;BME280;41397;49.972;18.944;2023-04-25T02:09:08;100843.46;;;15.54;66.53
55550;BME280;41397;49.972;18.944;2023-04-25T02:12:10;100844.41;;;15.45;66.38
55550;BME280;41397;49.972;18.944;2023-04-25T02:15:12;100849.06;;;15.45;66.55
55550;BME280;41397;49.972;18.944;2023-04-25T02:18:13;100853.72;;;15.44;66.35
55550;BME280;41397;49.972;18.944;2023-04-25T02:21:18;100850.96;;;15.44;66.49
55550;BME280;41397;49.972;18.944;2023-04-25T02:24:19;100850.96;;;15.44;66.30
55550;BME280;41397;49.972;18.944;2023-04-25T02:27:21;100848.20;;;15.44;65.97
55550;BME280;41397;49.972;18.944;2023-04-25T02:30:22;100850.38;;;15.41;65.60
55550;BME280;41397;49.972;18.944;2023-04-25T02:33:23;100858.41;;;15.34;65.55
55550;BME280;41397;49.972;18.944;2023-04-25T02:36:25;100857.55;;;15.34;64.73
55550;BME280;41397;49.972;18.944;2023-04-25T02:39:28;100861.48;;;15.31;65.23
55550;BME280;41397;49.972;18.944;2023-04-25T02:42:30;100863.21;;;15.32;65.12
55550;BME280;41397;49.972;18.944;2023-04-25T02:45:46;100864.55;;;15.28;64.87
55550;BME280;41397;49.972;18.944;2023-04-25T02:48:50;100860.35;;;15.24;65.08
55550;BME280;41397;49.972;18.944;2023-04-25T02:51:51;100869.80;;;15.21;65.32
55550;BME280;41397;49.972;18.944;2023-04-25T02:54:52;100856.64;;;15.15;65.42
55550;BME280;41397;49.972;18.944;2023-04-25T02:57:54;100858.67;;;15.13;65.26
55550;BME280;41397;49.972;18.944;2023-04-25T03:00:59;100869.86;;;15.12;64.89
55550;BME280;41397;49.972;18.944;2023-04-25T03:04:01;100849.99;;;15.08;65.33
55550;BME280;41397;49.972;18.944;2023-04-25T03:07:02;100862.59;;;15.10;65.34
55550;BME280;41397;49.972;18.944;2023-04-25T03:10:04;100868.42;;;15.07;64.89
55550;BME280;41397;49.972;18.944;2023-04-25T03:13:07;100859.02;;;15.00;65.19
55550;BME280;41397;49.972;18.944;2023-04-25T03:16:08;100854.23;;;15.02;64.85
55550;BME280;41397;49.972;18.944;2023-04-25T03:19:09;100859.92;;;15.01;64.86
55550;BME280;41397;49.972;18.944;2023-04-25T03:22:11;100861.23;;;14.97;64.59
55550;BME280;41397;49.972;18.944;2023-04-25T03:25:13;100875.16;;;14.95;64.37
55550;BME280;41397;49.972;18.944;2023-04-25T03:28:15;100862.40;;;14.94;64.44
55550;BME280;41397;49.972;18.944;2023-04-25T03:31:16;100873.89;;;14.90;63.63
55550;BME280;41397;49.972;18.944;2023-04-25T03:34:18;100874.88;;;14.88;63.91
55550;BME280;41397;49.972;18.944;2023-04-25T03:37:21;100878.09;;;14.84;63.34
55550;BME280;41397;49.972;18.944;2023-04-25T03:40:23;100888.41;;;14.82;63.53
55550;BME280;41397;49.972;18.944;2023-04-25T03:43:24;100878.25;;;14.82;64.46
55550;BME280;41397;49.972;18.944;2023-04-25T03:46:26;100873.91;;;14.80;64.67
55550;BME280;41397;49.972;18.944;2023-04-25T03:49:29;100884.20;;;14.78;63.47
55550;BME280;41397;49.972;18.944;2023-04-25T03:52:31;100882.31;;;14.78;63.98
55550;BME280;41397;49.972;18.944;2023-04-25T03:55:32;100882.05;;;14.72;63.90
55550;BME280;41397;49.972;18.944;2023-04-25T03:58:35;100886.70;;;14.71;64.30
55550;BME280;41397;49.972;18.944;2023-04-25T04:01:37;100886.41;;;14.64;64.34
55550;BME280;41397;49.972;18.944;2023-04-25T04:04:39;100896.26;;;14.67;63.41
55550;BME280;41397;49.972;18.944;2023-04-25T04:07:40;100894.84;;;14.63;63.23
55550;BME280;41397;49.972;18.944;2023-04-25T04:10:44;100902.23;;;14.62;63.14
55550;BME280;41397;49.972;18.944;2023-04-25T04:13:46;100900.78;;;14.58;62.79
55550;BME280;41397;49.972;18.944;2023-04-25T04:16:47;100907.02;;;14.60;64.00
55550;BME280;41397;49.972;18.944;2023-04-25T04:19:49;100918.15;;;14.59;63.07
55550;BME280;41397;49.972;18.944;2023-04-25T04:22:50;100908.61;;;14.53;63.01
55550;BME280;41397;49.972;18.944;2023-04-25T04:25:54;100911.36;;;14.53;63.49
55550;BME280;41397;49.972;18.944;2023-04-25T04:28:57;100912.22;;;14.54;63.95
55550;BME280;41397;49.972;18.944;2023-04-25T04:32:01;100916.73;;;14.55;64.57
55550;BME280;41397;49.972;18.944;2023-04-25T04:35:02;100917.90;;;14.52;63.90
55550;BME280;41397;49.972;18.944;2023-04-25T04:38:05;100908.61;;;14.53;63.53
55550;BME280;41397;49.972;18.944;2023-04-25T04:41:07;100913.98;;;14.55;63.31
55550;BME280;41397;49.972;18.944;2023-04-25T04:44:08;100911.06;;;14.56;63.52
55550;BME280;41397;49.972;18.944;2023-04-25T04:47:11;100908.02;;;14.59;63.27
55550;BME280;41397;49.972;18.944;2023-04-25T04:50:15;100914.55;;;14.58;63.10
55550;BME280;41397;49.972;18.944;2023-04-25T04:53:17;100909.03;;;14.58;63.06
55550;BME280;41397;49.972;18.944;2023-04-25T04:56:18;100909.90;;;14.59;63.10
55550;BME280;41397;49.972;18.944;2023-04-25T04:59:24;100907.27;;;14.67;63.13
55550;BME280;41397;49.972;18.944;2023-04-25T05:02:25;100905.23;;;14.69;63.49
55550;BME280;41397;49.972;18.944;2023-04-25T05:08:48;100905.80;;;14.73;63.11
55550;BME280;41397;49.972;18.944;2023-04-25T05:11:51;100901.88;;;14.75;62.68
55550;BME280;41397;49.972;18.944;2023-04-25T05:14:53;100892.45;;;14.78;62.66
55550;BME280;41397;49.972;18.944;2023-04-25T05:17:55;100895.08;;;14.79;63.01
55550;BME280;41397;49.972;18.944;2023-04-25T05:20:56;100900.10;;;14.84;62.72
55550;BME280;41397;49.972;18.944;2023-04-25T05:23:57;100895.33;;;14.86;62.49
55550;BME280;41397;49.972;18.944;2023-04-25T05:26:59;100899.55;;;14.80;61.77
55550;BME280;41397;49.972;18.944;2023-04-25T05:30:00;100903.28;;;14.89;62.76
55550;BME280;41397;49.972;18.944;2023-04-25T05:33:02;100904.87;;;14.92;61.95
55550;BME280;41397;49.972;18.944;2023-04-25T05:36:04;100907.48;;;14.93;61.03
55550;BME280;41397;49.972;18.944;2023-04-25T05:39:05;100905.15;;;14.98;61.71
55550;BME280;41397;49.972;18.944;2023-04-25T05:42:18;100910.17;;;15.03;62.28
55550;BME280;41397;49.972;18.944;2023-04-25T05:45:19;100903.67;;;15.04;60.51
55550;BME280;41397;49.972;18.944;2023-04-25T05:48:21;100910.15;;;15.13;61.64
55550;BME280;41397;49.972;18.944;2023-04-25T05:51:23;100912.59;;;15.16;60.77
55550;BME280;41397;49.972;18.944;2023-04-25T05:54:26;100914.42;;;15.25;60.38
55550;BME280;41397;49.972;18.944;2023-04-25T05:57:27;100910.67;;;15.26;60.43
55550;BME280;41397;49.972;18.944;2023-04-25T06:00:29;100909.50;;;15.28;58.82
55550;BME280;41397;49.972;18.944;2023-04-25T06:03:30;100916.00;;;15.27;58.91
55550;BME280;41397;49.972;18.944;2023-04-25T06:06:34;100920.66;;;15.27;58.27
55550;BME280;41397;49.972;18.944;2023-04-25T06:09:36;100914.69;;;15.31;59.45
55550;BME280;41397;49.972;18.944;2023-04-25T06:12:39;100909.91;;;15.34;59.45
55550;BME280;41397;49.972;18.944;2023-04-25T06:15:41;100920.61;;;15.37;59.49
55550;BME280;41397;49.972;18.944;2023-04-25T06:18:42;100921.72;;;15.44;58.80
55550;BME280;41397;49.972;18.944;2023-04-25T06:21:44;100928.98;;;15.45;58.89
55550;BME280;41397;49.972;18.944;2023-04-25T06:24:46;100930.56;;;15.47;59.07
55550;BME280;41397;49.972;18.944;2023-04-25T06:27:47;100927.80;;;15.47;57.96
55550;BME280;41397;49.972;18.944;2023-04-25T06:30:50;100936.94;;;15.48;57.39
55550;BME280;41397;49.972;18.944;2023-04-25T06:33:52;100922.62;;;15.44;57.74
55550;BME280;41397;49.972;18.944;2023-04-25T06:36:56;100923.37;;;15.37;57.54
55550;BME280;41397;49.972;18.944;2023-04-25T06:39:57;100927.86;;;15.38;57.91
55550;BME280;41397;49.972;18.944;2023-04-25T06:42:59;100931.64;;;15.37;57.78
55550;BME280;41397;49.972;18.944;2023-04-25T06:46:03;100927.13;;;15.36;57.26
55550;BME280;41397;49.972;18.944;2023-04-25T06:49:04;100933.91;;;15.41;56.73
55550;BME280;41397;49.972;18.944;2023-04-25T06:52:07;100929.98;;;15.44;56.66
55550;BME280;41397;49.972;18.944;2023-04-25T06:55:11;100923.89;;;15.50;56.91
55550;BME280;41397;49.972;18.944;2023-04-25T06:58:12;100917.70;;;15.38;56.42
55550;BME280;41397;49.972;18.944;2023-04-25T07:01:14;100922.44;;;15.46;56.48
55550;BME280;41397;49.972;18.944;2023-04-25T07:04:16;100926.33;;;15.53;55.62
55550;BME280;41397;49.972;18.944;2023-04-25T07:07:17;100926.73;;;15.58;56.50
55550;BME280;41397;49.972;18.944;2023-04-25T07:10:19;100921.81;;;15.52;55.96
55550;BME280;41397;49.972;18.944;2023-04-25T07:13:23;100927.23;;;15.44;55.16
55550;BME280;41397;49.972;18.944;2023-04-25T07:16:24;100926.77;;;15.48;55.40
55550;BME280;41397;49.972;18.944;2023-04-25T07:19:26;100930.29;;;15.41;54.66
55550;BME280;41397;49.972;18.944;2023-04-25T07:22:40;100924.43;;;15.53;55.23
55550;BME280;41397;49.972;18.944;2023-04-25T07:25:41;100923.08;;;15.58;55.76
55550;BME280;41397;49.972;18.944;2023-04-25T07:28:43;100924.79;;;15.68;54.74
55550;BME280;41397;49.972;18.944;2023-04-25T07:31:44;100918.77;;;15.55;54.47
55550;BME280;41397;49.972;18.944;2023-04-25T07:34:48;100923.03;;;15.67;55.35
55550;BME280;41397;49.972;18.944;2023-04-25T07:37:49;100923.48;;;15.63;54.65
55550;BME280;41397;49.972;18.944;2023-04-25T07:40:51;100924.42;;;15.81;54.50
55550;BME280;41397;49.972;18.944;2023-04-25T07:43:53;100921.20;;;15.86;55.79
55550;BME280;41397;49.972;18.944;2023-04-25T07:46:56;100928.59;;;16.03;64.08
55550;BME280;41397;49.972;18.944;2023-04-25T07:49:57;100921.39;;;16.46;67.22
55550;BME280;41397;49.972;18.944;2023-04-25T07:52:59;100918.76;;;16.89;64.32
55550;BME280;41397;49.972;18.944;2023-04-25T07:56:00;100915.53;;;17.27;59.50
55550;BME280;41397;49.972;18.944;2023-04-25T07:59:03;100925.66;;;17.61;64.76
55550;BME280;41397;49.972;18.944;2023-04-25T08:02:05;100916.61;;;17.85;55.33
55550;BME280;41397;49.972;18.944;2023-04-25T08:05:07;100909.89;;;18.04;58.12
55550;BME280;41397;49.972;18.944;2023-04-25T08:08:14;100903.66;;;18.35;57.08
55550;BME280;41397;49.972;18.944;2023-04-25T08:11:16;100904.34;;;18.61;58.18
55550;BME280;41397;49.972;18.944;2023-04-25T08:14:17;100905.54;;;18.83;54.22
55550;BME280;41397;49.972;18.944;2023-04-25T08:17:19;100907.09;;;18.86;49.59
55550;BME280;41397;49.972;18.944;2023-04-25T08:20:21;100906.73;;;18.89;50.29
55550;BME280;41397;49.972;18.944;2023-04-25T08:23:22;100905.03;;;18.88;46.92
55550;BME280;41397;49.972;18.944;2023-04-25T08:26:25;100898.79;;;18.86;47.58
55550;BME280;41397;49.972;18.944;2023-04-25T08:29:27;100905.16;;;18.95;50.83
55550;BME280;41397;49.972;18.944;2023-04-25T08:32:29;100904.28;;;19.02;51.88
55550;BME280;41397;49.972;18.944;2023-04-25T08:35:31;100899.73;;;19.10;49.25
55550;BME280;41397;49.972;18.944;2023-04-25T08:38:33;100900.70;;;19.33;50.12
55550;BME280;41397;49.972;18.944;2023-04-25T08:41:37;100895.08;;;19.49;52.57
55550;BME280;41397;49.972;18.944;2023-04-25T08:44:38;100902.98;;;19.61;46.81
55550;BME280;41397;49.972;18.944;2023-04-25T08:47:40;100897.27;;;19.62;48.04
55550;BME280;41397;49.972;18.944;2023-04-25T08:50:51;100905.95;;;19.59;46.99
55550;BME280;41397;49.972;18.944;2023-04-25T08:53:53;100900.20;;;19.61;51.81
55550;BME280;41397;49.972;18.944;2023-04-25T08:56:55;100910.61;;;19.59;46.30
55550;BME280;41397;49.972;18.944;2023-04-25T09:00:03;100910.81;;;19.57;48.72
55550;BME280;41397;49.972;18.944;2023-04-25T09:03:06;100904.48;;;19.40;46.64
55550;BME280;41397;49.972;18.944;2023-04-25T09:06:10;100906.57;;;19.38;50.34
55550;BME280;41397;49.972;18.944;2023-04-25T09:09:12;100920.41;;;19.46;51.94
55550;BME280;41397;49.972;18.944;2023-04-25T09:12:15;100912.97;;;19.39;43.56
55550;BME280;41397;49.972;18.944;2023-04-25T09:15:17;100916.02;;;19.21;42.74
55550;BME280;41397;49.972;18.944;2023-04-25T09:18:25;100912.41;;;19.04;42.65
55550;BME280;41397;49.972;18.944;2023-04-25T09:21:29;100913.66;;;18.85;42.22
55550;BME280;41397;49.972;18.944;2023-04-25T09:24:43;100907.81;;;18.63;42.32
55550;BME280;41397;49.972;18.944;2023-04-25T09:27:50;100916.29;;;18.54;42.16
55550;BME280;41397;49.972;18.944;2023-04-25T09:30:57;100909.39;;;18.41;42.49
55550;BME280;41397;49.972;18.944;2023-04-25T09:34:01;100921.13;;;18.19;42.46
55550;BME280;41397;49.972;18.944;2023-04-25T09:37:03;100915.95;;;18.24;43.89
55550;BME280;41397;49.972;18.944;2023-04-25T09:40:06;100911.11;;;18.34;44.36
55550;BME280;41397;49.972;18.944;2023-04-25T09:43:19;100915.79;;;18.42;44.73
55550;BME280;41397;49.972;18.944;2023-04-25T09:46:34;100901.74;;;18.52;43.86
55550;BME280;41397;49.972;18.944;2023-04-25T09:49:40;100905.05;;;18.55;43.01
55550;BME280;41397;49.972;18.944;2023-04-25T09:53:12;100903.28;;;18.62;43.27
55550;BME280;41397;49.972;18.944;2023-04-25T09:56:22;100906.40;;;18.68;41.26
55550;BME280;41397;49.972;18.944;2023-04-25T09:59:24;100905.19;;;18.70;40.17
55550;BME280;41397;49.972;18.944;2023-04-25T10:02:29;100896.03;;;18.78;41.18
55550;BME280;41397;49.972;18.944;2023-04-25T10:05:44;100901.58;;;18.78;40.87
55550;BME280;41397;49.972;18.944;2023-04-25T10:08:50;100906.62;;;18.74;40.96
55550;BME280;41397;49.972;18.944;2023-04-25T10:11:52;100898.61;;;18.79;40.95
55550;BME280;41397;49.972;18.944;2023-04-25T10:14:58;100905.90;;;18.80;40.71
55550;BME280;41397;49.972;18.944;2023-04-25T10:18:00;100901.73;;;18.76;40.63
55550;BME280;41397;49.972;18.944;2023-04-25T10:24:20;100896.72;;;18.72;39.84
55550;BME280;41397;49.972;18.944;2023-04-25T10:27:21;100887.03;;;18.76;39.19
55550;BME280;41397;49.972;18.944;2023-04-25T10:30:24;100896.54;;;18.65;39.50
55550;BME280;41397;49.972;18.944;2023-04-25T10:36:52;100892.05;;;18.64;39.53
55550;BME280;41397;49.972;18.944;2023-04-25T10:46:59;100892.40;;;18.69;39.38
55550;BME280;41397;49.972;18.944;2023-04-25T10:50:08;100893.75;;;18.73;39.28
55550;BME280;41397;49.972;18.944;2023-04-25T10:53:16;100892.20;;;18.71;39.97
55550;BME280;41397;49.972;18.944;2023-04-25T10:56:26;100891.50;;;18.69;39.02
55550;BME280;41397;49.972;18.944;2023-04-25T10:59:28;100889.10;;;18.57;39.45
55550;BME280;41397;49.972;18.944;2023-04-25T11:02:30;100892.05;;;18.64;40.17
55550;BME280;41397;49.972;18.944;2023-04-25T11:05:35;100890.64;;;18.68;39.63
55550;BME280;41397;49.972;18.944;2023-04-25T11:08:50;100889.78;;;18.68;39.45
55550;BME280;41397;49.972;18.944;2023-04-25T11:11:55;100897.41;;;18.49;38.96
55550;BME280;41397;49.972;18.944;2023-04-25T11:15:04;100893.99;;;18.39;39.44
55550;BME280;41397;49.972;18.944;2023-04-25T11:18:16;100900.04;;;18.34;39.23
55550;BME280;41397;49.972;18.944;2023-04-25T11:21:19;100903.31;;;18.38;38.16
55550;BME280;41397;49.972;18.944;2023-04-25T11:24:34;100895.71;;;18.32;38.20
55550;BME280;41397;49.972;18.944;2023-04-25T11:27:32;100903.16;;;18.31;38.81
55550;BME280;41397;49.972;18.944;2023-04-25T11:30:33;100897.97;;;18.36;39.17
55550;BME280;41397;49.972;18.944;2023-04-25T11:33:37;100910.06;;;18.27;37.82
55550;BME280;41397;49.972;18.944;2023-04-25T11:36:41;100904.02;;;18.32;39.07
55550;BME280;41397;49.972;18.944;2023-04-25T11:39:43;100916.14;;;18.31;38.77
55550;BME280;41397;49.972;18.944;2023-04-25T11:42:47;100910.06;;;18.35;38.72
55550;BME280;41397;49.972;18.944;2023-04-25T11:45:49;100911.81;;;18.36;38.36
55550;BME280;41397;49.972;18.944;2023-04-25T11:48:55;100907.99;;;18.37;38.35
55550;BME280;41397;49.972;18.944;2023-04-25T11:51:57;100910.60;;;18.31;37.78
55550;BME280;41397;49.972;18.944;2023-04-25T11:54:58;100900.39;;;18.31;38.41
55550;BME280;41397;49.972;18.944;2023-04-25T11:58:00;100909.05;;;18.36;39.08
55550;BME280;41397;49.972;18.944;2023-04-25T12:01:03;100901.24;;;18.40;39.25
55550;BME280;41397;49.972;18.944;2023-04-25T12:07:17;100903.31;;;18.38;39.27
55550;BME280;41397;49.972;18.944;2023-04-25T12:10:24;100898.99;;;18.27;38.68
55550;BME280;41397;49.972;18.944;2023-04-25T12:13:26;100907.84;;;18.31;39.44
55550;BME280;41397;49.972;18.944;2023-04-25T12:16:29;100905.38;;;18.36;39.88
55550;BME280;41397;49.972;18.944;2023-04-25T12:19:35;100901.25;;;18.32;38.85
55550;BME280;41397;49.972;18.944;2023-04-25T12:22:37;100910.06;;;18.27;38.53
55550;BME280;41397;49.972;18.944;2023-04-25T12:25:43;100913.69;;;18.28;38.26
55550;BME280;41397;49.972;18.944;2023-04-25T12:28:48;100915.25;;;18.30;38.33
55550;BME280;41397;49.972;18.944;2023-04-25T12:31:50;100907.48;;;18.26;38.17
55550;BME280;41397;49.972;18.944;2023-04-25T12:34:52;100903.67;;;18.27;37.69
55550;BME280;41397;49.972;18.944;2023-04-25T12:37:53;100896.77;;;18.14;37.53
55550;BME280;41397;49.972;18.944;2023-04-25T12:40:56;100905.57;;;18.18;38.46
55550;BME280;41397;49.972;18.944;2023-04-25T12:43:58;100909.70;;;18.14;38.47
55550;BME280;41397;49.972;18.944;2023-04-25T12:46:59;100911.46;;;18.23;38.24
55550;BME280;41397;49.972;18.944;2023-04-25T12:50:01;100910.60;;;18.23;38.37
55550;BME280;41397;49.972;18.944;2023-04-25T12:53:03;100906.07;;;18.22;38.53
55550;BME280;41397;49.972;18.944;2023-04-25T12:56:05;100897.97;;;18.20;38.62
55550;BME280;41397;49.972;18.944;2023-04-25T12:59:15;100891.89;;;18.16;38.40
55550;BME280;41397;49.972;18.944;2023-04-25T13:02:17;100890.52;;;18.12;38.24
55550;BME280;41397;49.972;18.944;2023-04-25T13:05:18;100890.52;;;18.04;38.26
55550;BME280;41397;49.972;18.944;2023-04-25T13:08:20;100902.09;;;18.00;39.16
55550;BME280;41397;49.972;18.944;2023-04-25T13:11:21;100893.09;;;18.06;39.30
55550;BME280;41397;49.972;18.944;2023-04-25T13:14:23;100892.23;;;18.05;39.66
55550;BME280;41397;49.972;18.944;2023-04-25T13:17:24;100894.66;;;18.16;39.62
55550;BME280;41397;49.972;18.944;2023-04-25T13:20:26;100894.85;;;18.23;38.81
55550;BME280;41397;49.972;18.944;2023-04-25T13:23:29;100891.54;;;18.28;39.06
55550;BME280;41397;49.972;18.944;2023-04-25T13:26:31;100882.02;;;18.30;39.10
55550;BME280;41397;49.972;18.944;2023-04-25T13:29:33;100893.99;;;18.31;39.09
55550;BME280;41397;49.972;18.944;2023-04-25T13:32:37;100888.27;;;18.32;38.95
55550;BME280;41397;49.972;18.944;2023-04-25T13:35:39;100887.91;;;18.35;38.52
55550;BME280;41397;49.972;18.944;2023-04-25T13:38:40;100883.59;;;18.33;38.64
55550;BME280;41397;49.972;18.944;2023-04-25T13:41:48;100894.66;;;18.33;38.36
55550;BME280;41397;49.972;18.944;2023-04-25T13:44:53;100885.49;;;18.32;38.86
55550;BME280;41397;49.972;18.944;2023-04-25T13:47:54;100885.49;;;18.32;38.56
55550;BME280;41397;49.972;18.944;2023-04-25T13:50:56;100888.77;;;18.36;38.50
55550;BME280;41397;49.972;18.944;2023-04-25T13:53:58;100903.16;;;18.39;38.62
55550;BME280;41397;49.972;18.944;2023-04-25T13:57:01;100895.87;;;18.30;38.36
55550;BME280;41397;49.972;18.944;2023-04-25T14:00:04;100891.50;;;18.69;51.33
55550;BME280;41397;49.972;18.944;2023-04-25T14:03:10;100876.34;;;19.12;48.06
55550;BME280;41397;49.972;18.944;2023-04-25T14:06:12;100879.53;;;19.40;50.70
55550;BME280;41397;49.972;18.944;2023-04-25T14:09:14;100885.73;;;19.82;49.50
55550;BME280;41397;49.972;18.944;2023-04-25T14:12:16;100887.84;;;20.03;46.95
55550;BME280;41397;49.972;18.944;2023-04-25T14:15:18;100888.60;;;20.34;49.23
55550;BME280;41397;49.972;18.944;2023-04-25T14:18:21;100882.67;;;20.60;47.79
55550;BME280;41397;49.972;18.944;2023-04-25T14:21:23;100885.88;;;20.87;48.25
55550;BME280;41397;49.972;18.944;2023-04-25T14:24:24;100886.93;;;21.16;40.62
55550;BME280;41397;49.972;18.944;2023-04-25T14:27:27;100892.20;;;21.25;45.03
55550;BME280;41397;49.972;18.944;2023-04-25T14:30:29;100886.54;;;21.34;41.92
55550;BME280;41397;49.972;18.944;2023-04-25T14:33:31;100885.57;;;21.41;44.46
55550;BME280;41397;49.972;18.944;2023-04-25T14:36:33;100889.88;;;21.44;42.70
55550;BME280;41397;49.972;18.944;2023-04-25T14:39:35;100877.90;;;21.43;40.41
55550;BME280;41397;49.972;18.944;2023-04-25T14:42:38;100882.89;;;21.48;43.03
55550;BME280;41397;49.972;18.944;2023-04-25T14:45:40;100879.03;;;21.49;43.52
55550;BME280;41397;49.972;18.944;2023-04-25T14:48:42;100875.59;;;21.47;41.64
55550;BME280;41397;49.972;18.944;2023-04-25T14:51:43;100879.89;;;21.49;42.77
55550;BME280;41397;49.972;18.944;2023-04-25T14:54:45;100877.80;;;21.37;40.69
55550;BME280;41397;49.972;18.944;2023-04-25T14:57:47;100876.76;;;21.38;42.53
55550;BME280;41397;49.972;18.944;2023-04-25T15:00:48;100880.18;;;21.25;41.32
55550;BME280;41397;49.972;18.944;2023-04-25T15:03:50;100884.42;;;21.21;41.13
55550;BME280;41397;49.972;18.944;2023-04-25T15:06:53;100883.19;;;21.23;42.88
55550;BME280;41397;49.972;18.944;2023-04-25T15:09:54;100888.53;;;21.25;42.22
55550;BME280;41397;49.972;18.944;2023-04-25T15:12:58;100895.35;;;21.22;42.70
55550;BME280;41397;49.972;18.944;2023-04-25T15:15:59;100890.74;;;21.29;41.54
55550;BME280;41397;49.972;18.944;2023-04-25T15:19:01;100895.73;;;21.34;42.54
55550;BME280;41397;49.972;18.944;2023-04-25T15:22:05;100888.07;;;21.36;42.21
55550;BME280;41397;49.972;18.944;2023-04-25T15:25:09;100883.86;;;21.40;42.62
55550;BME280;41397;49.972;18.944;2023-04-25T15:28:12;100891.14;;;21.41;40.61
55550;BME280;41397;49.972;18.944;2023-04-25T15:31:17;100892.49;;;21.45;41.56
55550;BME280;41397;49.972;18.944;2023-04-25T15:34:18;100895.45;;;21.44;40.77
55550;BME280;41397;49.972;18.944;2023-04-25T15:37:26;100901.90;;;21.44;41.51
55550;BME280;41397;49.972;18.944;2023-04-25T15:40:27;100898.06;;;21.45;41.45
55550;BME280;41397;49.972;18.944;2023-04-25T15:43:29;100898.06;;;21.45;39.70
55550;BME280;41397;49.972;18.944;2023-04-25T15:46:31;100895.73;;;21.49;40.88
55550;BME280;41397;49.972;18.944;2023-04-25T15:49:34;100896.12;;;21.46;41.11
55550;BME280;41397;49.972;18.944;2023-04-25T15:52:36;100891.41;;;21.46;41.09
55550;BME280;41397;49.972;18.944;2023-04-25T15:55:38;100902.36;;;21.48;41.30
55550;BME280;41397;49.972;18.944;2023-04-25T15:58:40;100909.46;;;21.50;41.45
55550;BME280;41397;49.972;18.944;2023-04-25T16:01:41;100906.02;;;21.48;40.74
55550;BME280;41397;49.972;18.944;2023-04-25T16:04:47;100902.27;;;21.41;39.04